sensor_id;sensor_type;location;lat;lon;timestamp;P1;durP1;ratioP1;P2;durP2;ratioP2
53801;SDS011;39709;53.334;6.534;2022-10-16T00:01:28;3.88;;;0.63;;
53801;SDS011;39709;53.334;6.534;2022-10-16T00:03:56;2.38;;;0.45;;
53801;SDS011;39709;53.334;6.534;2022-10-16T00:06:23;3.43;;;0.73;;
53801;SDS011;39709;53.334;6.534;2022-10-16T00:08:49;4.97;;;0.60;;
53801;SDS011;39709;53.334;6.534;2022-10-16T00:11:17;3.70;;;0.77;;
53801;SDS011;39709;53.334;6.534;2022-10-16T00:13:44;5.53;;;0.77;;
53801;SDS011;39709;53.334;6.534;2022-10-16T00:16:12;4.50;;;0.70;;
53801;SDS011;39709;53.334;6.534;2022-10-16T00:18:38;4.03;;;0.70;;
53801;SDS011;39709;53.334;6.534;2022-10-16T00:21:05;2.10;;;0.40;;
53801;SDS011;39709;53.334;6.534;2022-10-16T00:23:33;3.38;;;0.60;;
53801;SDS011;39709;53.334;6.534;2022-10-16T00:26:00;5.68;;;0.95;;
53801;SDS011;39709;53.334;6.534;2022-10-16T00:28:27;3.05;;;0.47;;
53801;SDS011;39709;53.334;6.534;2022-10-16T00:30:54;5.43;;;1.20;;
53801;SDS011;39709;53.334;6.534;2022-10-16T00:33:20;4.13;;;0.70;;
53801;SDS011;39709;53.334;6.534;2022-10-16T00:35:46;2.28;;;0.40;;
53801;SDS011;39709;53.334;6.534;2022-10-16T00:38:12;3.72;;;0.43;;
53801;SDS011;39709;53.334;6.534;2022-10-16T00:40:38;3.20;;;0.60;;
53801;SDS011;39709;53.334;6.534;2022-10-16T00:43:09;3.03;;;0.50;;
53801;SDS011;39709;53.334;6.534;2022-10-16T00:45:58;3.08;;;0.70;;
53801;SDS011;39709;53.334;6.534;2022-10-16T00:48:25;4.50;;;0.95;;
53801;SDS011;39709;53.334;6.534;2022-10-16T00:50:51;2.03;;;0.40;;
53801;SDS011;39709;53.334;6.534;2022-10-16T00:53:18;4.68;;;0.63;;
53801;SDS011;39709;53.334;6.534;2022-10-16T00:55:44;2.00;;;0.50;;
53801;SDS011;39709;53.334;6.534;2022-10-16T00:58:10;4.15;;;0.60;;
53801;SDS011;39709;53.334;6.534;2022-10-16T01:00:36;3.13;;;0.60;;
53801;SDS011;39709;53.334;6.534;2022-10-16T01:03:03;4.90;;;0.57;;
53801;SDS011;39709;53.334;6.534;2022-10-16T01:05:49;5.07;;;0.50;;
53801;SDS011;39709;53.334;6.534;2022-10-16T01:08:34;2.63;;;0.40;;
53801;SDS011;39709;53.334;6.534;2022-10-16T01:13:58;2.25;;;0.43;;
53801;SDS011;39709;53.334;6.534;2022-10-16T01:19:55;2.08;;;0.50;;
53801;SDS011;39709;53.334;6.534;2022-10-16T01:28:28;3.15;;;0.52;;
53801;SDS011;39709;53.334;6.534;2022-10-16T01:31:02;4.20;;;0.60;;
53801;SDS011;39709;53.334;6.534;2022-10-16T01:33:30;2.75;;;0.50;;
53801;SDS011;39709;53.334;6.534;2022-10-16T01:36:07;3.75;;;0.63;;
53801;SDS011;39709;53.334;6.534;2022-10-16T01:38:38;3.50;;;0.60;;
53801;SDS011;39709;53.334;6.534;2022-10-16T01:44:17;5.68;;;0.70;;
53801;SDS011;39709;53.334;6.534;2022-10-16T01:46:46;4.90;;;0.60;;
53801;SDS011;39709;53.334;6.534;2022-10-16T01:49:13;3.85;;;0.60;;
53801;SDS011;39709;53.334;6.534;2022-10-16T01:51:41;2.43;;;0.40;;
53801;SDS011;39709;53.334;6.534;2022-10-16T01:54:10;3.83;;;0.73;;
53801;SDS011;39709;53.334;6.534;2022-10-16T01:56:38;3.55;;;0.50;;
53801;SDS011;39709;53.334;6.534;2022-10-16T01:59:06;3.38;;;0.80;;
53801;SDS011;39709;53.334;6.534;2022-10-16T02:01:36;1.75;;;0.40;;
53801;SDS011;39709;53.334;6.534;2022-10-16T02:04:11;5.30;;;0.63;;
53801;SDS011;39709;53.334;6.534;2022-10-16T02:06:42;2.80;;;0.50;;
53801;SDS011;39709;53.334;6.534;2022-10-16T02:09:08;4.15;;;0.60;;
53801;SDS011;39709;53.334;6.534;2022-10-16T02:11:34;4.22;;;0.50;;
53801;SDS011;39709;53.334;6.534;2022-10-16T02:14:06;3.73;;;0.70;;
53801;SDS011;39709;53.334;6.534;2022-10-16T02:16:33;4.72;;;0.68;;
53801;SDS011;39709;53.334;6.534;2022-10-16T02:19:02;3.15;;;0.60;;
53801;SDS011;39709;53.334;6.534;2022-10-16T02:21:30;2.13;;;0.40;;
53801;SDS011;39709;53.334;6.534;2022-10-16T02:24:11;4.40;;;0.60;;
53801;SDS011;39709;53.334;6.534;2022-10-16T02:29:41;3.25;;;0.50;;
53801;SDS011;39709;53.334;6.534;2022-10-16T02:32:13;4.78;;;0.57;;
53801;SDS011;39709;53.334;6.534;2022-10-16T02:34:43;4.10;;;1.00;;
53801;SDS011;39709;53.334;6.534;2022-10-16T02:37:10;4.68;;;0.70;;
53801;SDS011;39709;53.334;6.534;2022-10-16T02:39:36;4.47;;;0.60;;
53801;SDS011;39709;53.334;6.534;2022-10-16T02:42:03;4.20;;;0.65;;
53801;SDS011;39709;53.334;6.534;2022-10-16T02:44:29;3.90;;;0.60;;
53801;SDS011;39709;53.334;6.534;2022-10-16T02:46:55;4.60;;;0.80;;
53801;SDS011;39709;53.334;6.534;2022-10-16T02:49:20;2.83;;;0.70;;
53801;SDS011;39709;53.334;6.534;2022-10-16T02:51:46;4.10;;;0.90;;
53801;SDS011;39709;53.334;6.534;2022-10-16T02:54:12;4.77;;;0.73;;
53801;SDS011;39709;53.334;6.534;2022-10-16T02:56:38;5.20;;;0.70;;
53801;SDS011;39709;53.334;6.534;2022-10-16T02:59:03;3.55;;;0.60;;
53801;SDS011;39709;53.334;6.534;2022-10-16T03:01:29;3.43;;;0.70;;
53801;SDS011;39709;53.334;6.534;2022-10-16T03:03:55;4.50;;;0.68;;
53801;SDS011;39709;53.334;6.534;2022-10-16T03:06:20;3.63;;;0.47;;
53801;SDS011;39709;53.334;6.534;2022-10-16T03:08:46;4.80;;;0.82;;
53801;SDS011;39709;53.334;6.534;2022-10-16T03:11:12;2.93;;;0.60;;
53801;SDS011;39709;53.334;6.534;2022-10-16T03:13:37;2.30;;;0.53;;
53801;SDS011;39709;53.334;6.534;2022-10-16T03:16:03;3.70;;;0.80;;
53801;SDS011;39709;53.334;6.534;2022-10-16T03:18:29;3.20;;;0.67;;
53801;SDS011;39709;53.334;6.534;2022-10-16T03:20:54;3.77;;;0.70;;
53801;SDS011;39709;53.334;6.534;2022-10-16T03:23:20;4.93;;;0.60;;
53801;SDS011;39709;53.334;6.534;2022-10-16T03:25:46;3.03;;;0.60;;
53801;SDS011;39709;53.334;6.534;2022-10-16T03:28:11;2.47;;;0.57;;
53801;SDS011;39709;53.334;6.534;2022-10-16T03:30:37;3.25;;;0.70;;
53801;SDS011;39709;53.334;6.534;2022-10-16T03:33:04;3.00;;;0.57;;
53801;SDS011;39709;53.334;6.534;2022-10-16T03:35:30;5.47;;;0.73;;
53801;SDS011;39709;53.334;6.534;2022-10-16T03:37:56;3.85;;;0.70;;
53801;SDS011;39709;53.334;6.534;2022-10-16T03:40:22;2.75;;;0.60;;
53801;SDS011;39709;53.334;6.534;2022-10-16T03:42:48;3.13;;;0.60;;
53801;SDS011;39709;53.334;6.534;2022-10-16T03:45:14;4.40;;;0.80;;
53801;SDS011;39709;53.334;6.534;2022-10-16T03:47:39;4.20;;;0.60;;
53801;SDS011;39709;53.334;6.534;2022-10-16T03:50:06;3.20;;;0.65;;
53801;SDS011;39709;53.334;6.534;2022-10-16T03:52:32;3.85;;;0.50;;
53801;SDS011;39709;53.334;6.534;2022-10-16T03:54:58;3.53;;;0.52;;
53801;SDS011;39709;53.334;6.534;2022-10-16T03:57:23;4.17;;;0.63;;
53801;SDS011;39709;53.334;6.534;2022-10-16T03:59:49;2.55;;;0.60;;
53801;SDS011;39709;53.334;6.534;2022-10-16T04:02:15;1.55;;;0.30;;
53801;SDS011;39709;53.334;6.534;2022-10-16T04:04:41;3.50;;;0.50;;
53801;SDS011;39709;53.334;6.534;2022-10-16T04:07:07;2.88;;;0.47;;
53801;SDS011;39709;53.334;6.534;2022-10-16T04:09:32;2.70;;;0.60;;
53801;SDS011;39709;53.334;6.534;2022-10-16T04:11:58;1.08;;;0.30;;
53801;SDS011;39709;53.334;6.534;2022-10-16T04:14:24;2.23;;;0.40;;
53801;SDS011;39709;53.334;6.534;2022-10-16T04:16:49;4.28;;;0.80;;
53801;SDS011;39709;53.334;6.534;2022-10-16T04:19:15;2.40;;;0.57;;
53801;SDS011;39709;53.334;6.534;2022-10-16T04:21:41;3.37;;;0.60;;
53801;SDS011;39709;53.334;6.534;2022-10-16T04:24:06;4.60;;;1.03;;
53801;SDS011;39709;53.334;6.534;2022-10-16T04:26:32;3.73;;;0.87;;
53801;SDS011;39709;53.334;6.534;2022-10-16T04:28:58;3.40;;;0.70;;
53801;SDS011;39709;53.334;6.534;2022-10-16T04:31:23;2.60;;;0.40;;
53801;SDS011;39709;53.334;6.534;2022-10-16T04:33:49;4.22;;;0.70;;
53801;SDS011;39709;53.334;6.534;2022-10-16T04:36:15;3.90;;;0.43;;
53801;SDS011;39709;53.334;6.534;2022-10-16T04:38:40;4.15;;;0.60;;
53801;SDS011;39709;53.334;6.534;2022-10-16T04:41:06;3.70;;;0.63;;
53801;SDS011;39709;53.334;6.534;2022-10-16T04:43:33;2.17;;;0.57;;
53801;SDS011;39709;53.334;6.534;2022-10-16T04:45:59;3.58;;;0.57;;
53801;SDS011;39709;53.334;6.534;2022-10-16T04:48:24;2.40;;;0.50;;
53801;SDS011;39709;53.334;6.534;2022-10-16T04:50:50;3.08;;;0.50;;
53801;SDS011;39709;53.334;6.534;2022-10-16T04:53:16;3.13;;;0.50;;
53801;SDS011;39709;53.334;6.534;2022-10-16T04:55:42;1.95;;;0.45;;
53801;SDS011;39709;53.334;6.534;2022-10-16T04:58:07;3.57;;;0.73;;
53801;SDS011;39709;53.334;6.534;2022-10-16T05:00:33;3.92;;;0.73;;
53801;SDS011;39709;53.334;6.534;2022-10-16T05:03:00;3.95;;;0.50;;
53801;SDS011;39709;53.334;6.534;2022-10-16T05:05:27;3.65;;;0.88;;
53801;SDS011;39709;53.334;6.534;2022-10-16T05:07:53;1.90;;;0.43;;
53801;SDS011;39709;53.334;6.534;2022-10-16T05:10:19;3.15;;;0.80;;
53801;SDS011;39709;53.334;6.534;2022-10-16T05:12:46;3.08;;;0.70;;
53801;SDS011;39709;53.334;6.534;2022-10-16T05:15:11;4.13;;;0.70;;
53801;SDS011;39709;53.334;6.534;2022-10-16T05:17:37;6.13;;;0.93;;
53801;SDS011;39709;53.334;6.534;2022-10-16T05:20:03;3.07;;;0.70;;
53801;SDS011;39709;53.334;6.534;2022-10-16T05:22:29;3.93;;;0.80;;
53801;SDS011;39709;53.334;6.534;2022-10-16T05:24:55;5.47;;;0.77;;
53801;SDS011;39709;53.334;6.534;2022-10-16T05:27:20;2.77;;;0.50;;
53801;SDS011;39709;53.334;6.534;2022-10-16T05:29:46;4.43;;;1.05;;
53801;SDS011;39709;53.334;6.534;2022-10-16T05:32:14;3.65;;;0.82;;
53801;SDS011;39709;53.334;6.534;2022-10-16T05:34:40;4.20;;;0.77;;
53801;SDS011;39709;53.334;6.534;2022-10-16T05:37:06;6.32;;;1.17;;
53801;SDS011;39709;53.334;6.534;2022-10-16T05:39:32;3.53;;;0.63;;
53801;SDS011;39709;53.334;6.534;2022-10-16T05:41:58;3.67;;;0.60;;
53801;SDS011;39709;53.334;6.534;2022-10-16T05:44:24;5.03;;;0.70;;
53801;SDS011;39709;53.334;6.534;2022-10-16T05:46:49;2.60;;;0.70;;
53801;SDS011;39709;53.334;6.534;2022-10-16T05:49:15;3.47;;;0.70;;
53801;SDS011;39709;53.334;6.534;2022-10-16T05:51:41;2.93;;;0.60;;
53801;SDS011;39709;53.334;6.534;2022-10-16T05:54:07;5.03;;;0.77;;
53801;SDS011;39709;53.334;6.534;2022-10-16T05:56:33;4.05;;;0.60;;
53801;SDS011;39709;53.334;6.534;2022-10-16T05:58:58;2.30;;;0.67;;
53801;SDS011;39709;53.334;6.534;2022-10-16T06:01:24;4.55;;;0.80;;
53801;SDS011;39709;53.334;6.534;2022-10-16T06:03:50;3.63;;;0.43;;
53801;SDS011;39709;53.334;6.534;2022-10-16T06:06:20;3.50;;;0.82;;
53801;SDS011;39709;53.334;6.534;2022-10-16T06:08:48;2.88;;;0.50;;
53801;SDS011;39709;53.334;6.534;2022-10-16T06:11:16;4.72;;;0.85;;
53801;SDS011;39709;53.334;6.534;2022-10-16T06:13:44;3.07;;;0.70;;
53801;SDS011;39709;53.334;6.534;2022-10-16T06:16:11;3.30;;;1.00;;
53801;SDS011;39709;53.334;6.534;2022-10-16T06:18:37;4.20;;;0.70;;
53801;SDS011;39709;53.334;6.534;2022-10-16T06:21:25;3.00;;;0.60;;
53801;SDS011;39709;53.334;6.534;2022-10-16T06:23:50;4.78;;;0.93;;
53801;SDS011;39709;53.334;6.534;2022-10-16T06:26:17;5.47;;;1.10;;
53801;SDS011;39709;53.334;6.534;2022-10-16T06:28:45;2.38;;;0.60;;
53801;SDS011;39709;53.334;6.534;2022-10-16T06:31:11;3.30;;;0.70;;
53801;SDS011;39709;53.334;6.534;2022-10-16T06:33:37;3.05;;;0.75;;
53801;SDS011;39709;53.334;6.534;2022-10-16T06:36:04;5.53;;;1.00;;
53801;SDS011;39709;53.334;6.534;2022-10-16T06:38:38;2.60;;;0.65;;
53801;SDS011;39709;53.334;6.534;2022-10-16T06:41:04;5.35;;;1.42;;
53801;SDS011;39709;53.334;6.534;2022-10-16T06:43:31;4.75;;;1.15;;
53801;SDS011;39709;53.334;6.534;2022-10-16T06:45:57;6.90;;;1.10;;
53801;SDS011;39709;53.334;6.534;2022-10-16T06:48:24;5.00;;;1.40;;
53801;SDS011;39709;53.334;6.534;2022-10-16T06:50:57;5.20;;;1.08;;
53801;SDS011;39709;53.334;6.534;2022-10-16T06:53:29;5.22;;;1.38;;
53801;SDS011;39709;53.334;6.534;2022-10-16T06:55:57;4.15;;;1.33;;
53801;SDS011;39709;53.334;6.534;2022-10-16T06:58:31;6.50;;;1.50;;
53801;SDS011;39709;53.334;6.534;2022-10-16T07:00:56;4.67;;;0.90;;
53801;SDS011;39709;53.334;6.534;2022-10-16T07:03:22;5.80;;;1.00;;
53801;SDS011;39709;53.334;6.534;2022-10-16T07:05:48;5.07;;;1.00;;
53801;SDS011;39709;53.334;6.534;2022-10-16T07:08:13;4.47;;;0.80;;
53801;SDS011;39709;53.334;6.534;2022-10-16T07:10:39;4.95;;;0.93;;
53801;SDS011;39709;53.334;6.534;2022-10-16T07:13:05;2.67;;;0.67;;
53801;SDS011;39709;53.334;6.534;2022-10-16T07:15:32;4.93;;;0.52;;
53801;SDS011;39709;53.334;6.534;2022-10-16T07:17:59;4.65;;;0.77;;
53801;SDS011;39709;53.334;6.534;2022-10-16T07:20:25;3.38;;;0.65;;
53801;SDS011;39709;53.334;6.534;2022-10-16T07:22:51;3.70;;;0.60;;
53801;SDS011;39709;53.334;6.534;2022-10-16T07:25:17;4.07;;;0.80;;
53801;SDS011;39709;53.334;6.534;2022-10-16T07:27:43;4.30;;;0.90;;
53801;SDS011;39709;53.334;6.534;2022-10-16T07:30:09;2.70;;;0.50;;
53801;SDS011;39709;53.334;6.534;2022-10-16T07:32:35;3.67;;;0.60;;
53801;SDS011;39709;53.334;6.534;2022-10-16T07:35:01;5.05;;;0.60;;
53801;SDS011;39709;53.334;6.534;2022-10-16T07:37:26;4.47;;;0.95;;
53801;SDS011;39709;53.334;6.534;2022-10-16T07:39:52;5.00;;;0.53;;
53801;SDS011;39709;53.334;6.534;2022-10-16T07:42:18;3.73;;;0.60;;
53801;SDS011;39709;53.334;6.534;2022-10-16T07:44:45;2.72;;;0.60;;
53801;SDS011;39709;53.334;6.534;2022-10-16T07:47:10;2.92;;;0.47;;
53801;SDS011;39709;53.334;6.534;2022-10-16T07:49:36;2.17;;;0.60;;
53801;SDS011;39709;53.334;6.534;2022-10-16T07:52:02;5.50;;;0.60;;
53801;SDS011;39709;53.334;6.534;2022-10-16T07:54:27;1.67;;;0.43;;
53801;SDS011;39709;53.334;6.534;2022-10-16T07:56:53;7.07;;;0.80;;
53801;SDS011;39709;53.334;6.534;2022-10-16T07:59:19;4.47;;;0.60;;
53801;SDS011;39709;53.334;6.534;2022-10-16T08:01:44;4.23;;;0.60;;
53801;SDS011;39709;53.334;6.534;2022-10-16T08:04:10;3.63;;;0.68;;
53801;SDS011;39709;53.334;6.534;2022-10-16T08:06:37;6.03;;;0.83;;
53801;SDS011;39709;53.334;6.534;2022-10-16T08:09:04;5.03;;;0.50;;
53801;SDS011;39709;53.334;6.534;2022-10-16T08:11:30;2.97;;;0.57;;
53801;SDS011;39709;53.334;6.534;2022-10-16T08:13:55;1.87;;;0.50;;
53801;SDS011;39709;53.334;6.534;2022-10-16T08:16:21;4.35;;;0.60;;
53801;SDS011;39709;53.334;6.534;2022-10-16T08:18:47;4.05;;;0.60;;
53801;SDS011;39709;53.334;6.534;2022-10-16T08:21:14;4.63;;;0.97;;
53801;SDS011;39709;53.334;6.534;2022-10-16T08:23:42;4.20;;;0.75;;
53801;SDS011;39709;53.334;6.534;2022-10-16T08:26:09;3.00;;;0.60;;
53801;SDS011;39709;53.334;6.534;2022-10-16T08:28:35;2.88;;;0.60;;
53801;SDS011;39709;53.334;6.534;2022-10-16T08:31:05;3.60;;;0.63;;
53801;SDS011;39709;53.334;6.534;2022-10-16T08:33:36;2.60;;;0.50;;
53801;SDS011;39709;53.334;6.534;2022-10-16T08:36:03;3.33;;;0.73;;
53801;SDS011;39709;53.334;6.534;2022-10-16T08:38:30;2.67;;;0.40;;
53801;SDS011;39709;53.334;6.534;2022-10-16T08:40:58;3.83;;;0.50;;
53801;SDS011;39709;53.334;6.534;2022-10-16T08:49:08;3.00;;;0.60;;
53801;SDS011;39709;53.334;6.534;2022-10-16T08:51:38;3.05;;;0.40;;
53801;SDS011;39709;53.334;6.534;2022-10-16T08:54:05;1.88;;;0.40;;
53801;SDS011;39709;53.334;6.534;2022-10-16T08:56:40;3.42;;;0.60;;
53801;SDS011;39709;53.334;6.534;2022-10-16T08:59:06;3.40;;;0.60;;
53801;SDS011;39709;53.334;6.534;2022-10-16T09:01:40;3.60;;;0.73;;
53801;SDS011;39709;53.334;6.534;2022-10-16T09:13:17;2.42;;;0.50;;
53801;SDS011;39709;53.334;6.534;2022-10-16T09:15:32;3.05;;;0.80;;
53801;SDS011;39709;53.334;6.534;2022-10-16T09:18:22;3.92;;;0.90;;
53801;SDS011;39709;53.334;6.534;2022-10-16T09:21:05;4.13;;;0.50;;
53801;SDS011;39709;53.334;6.534;2022-10-16T09:23:43;5.82;;;0.88;;
53801;SDS011;39709;53.334;6.534;2022-10-16T09:26:10;4.90;;;0.82;;
53801;SDS011;39709;53.334;6.534;2022-10-16T09:28:37;6.32;;;1.05;;
53801;SDS011;39709;53.334;6.534;2022-10-16T09:31:03;5.00;;;0.73;;
53801;SDS011;39709;53.334;6.534;2022-10-16T09:33:30;2.97;;;0.65;;
53801;SDS011;39709;53.334;6.534;2022-10-16T09:36:00;6.47;;;1.40;;
53801;SDS011;39709;53.334;6.534;2022-10-16T09:38:34;3.43;;;0.53;;
53801;SDS011;39709;53.334;6.534;2022-10-16T09:41:15;2.80;;;0.57;;
53801;SDS011;39709;53.334;6.534;2022-10-16T09:44:05;5.20;;;0.88;;
53801;SDS011;39709;53.334;6.534;2022-10-16T09:46:42;2.60;;;0.40;;
53801;SDS011;39709;53.334;6.534;2022-10-16T09:52:04;4.38;;;0.93;;
53801;SDS011;39709;53.334;6.534;2022-10-16T09:54:35;4.03;;;0.70;;
53801;SDS011;39709;53.334;6.534;2022-10-16T09:57:05;6.97;;;0.90;;
53801;SDS011;39709;53.334;6.534;2022-10-16T09:59:32;6.03;;;1.05;;
53801;SDS011;39709;53.334;6.534;2022-10-16T10:02:00;4.18;;;0.65;;
53801;SDS011;39709;53.334;6.534;2022-10-16T10:04:37;5.05;;;0.88;;
53801;SDS011;39709;53.334;6.534;2022-10-16T10:07:05;5.90;;;0.80;;
53801;SDS011;39709;53.334;6.534;2022-10-16T10:09:42;8.00;;;1.55;;
53801;SDS011;39709;53.334;6.534;2022-10-16T10:12:26;5.28;;;0.70;;
53801;SDS011;39709;53.334;6.534;2022-10-16T10:14:57;7.00;;;1.40;;
53801;SDS011;39709;53.334;6.534;2022-10-16T10:17:29;7.40;;;0.95;;
53801;SDS011;39709;53.334;6.534;2022-10-16T10:30:33;5.45;;;0.68;;
53801;SDS011;39709;53.334;6.534;2022-10-16T10:38:38;6.95;;;0.90;;
53801;SDS011;39709;53.334;6.534;2022-10-16T10:49:32;5.72;;;0.70;;
53801;SDS011;39709;53.334;6.534;2022-10-16T10:54:44;5.07;;;0.93;;
53801;SDS011;39709;53.334;6.534;2022-10-16T10:57:35;6.05;;;0.70;;
53801;SDS011;39709;53.334;6.534;2022-10-16T11:00:20;7.17;;;0.80;;
53801;SDS011;39709;53.334;6.534;2022-10-16T11:03:04;9.27;;;1.17;;
53801;SDS011;39709;53.334;6.534;2022-10-16T11:05:44;6.68;;;0.60;;
53801;SDS011;39709;53.334;6.534;2022-10-16T11:08:33;7.80;;;0.70;;
53801;SDS011;39709;53.334;6.534;2022-10-16T11:11:07;7.43;;;1.30;;
53801;SDS011;39709;53.334;6.534;2022-10-16T11:16:32;5.47;;;0.60;;
53801;SDS011;39709;53.334;6.534;2022-10-16T11:19:03;5.68;;;0.70;;
53801;SDS011;39709;53.334;6.534;2022-10-16T11:21:50;4.88;;;0.88;;
53801;SDS011;39709;53.334;6.534;2022-10-16T11:24:23;8.45;;;0.88;;
53801;SDS011;39709;53.334;6.534;2022-10-16T11:27:03;6.53;;;0.90;;
53801;SDS011;39709;53.334;6.534;2022-10-16T11:29:34;6.82;;;0.88;;
53801;SDS011;39709;53.334;6.534;2022-10-16T11:32:18;6.13;;;0.60;;
53801;SDS011;39709;53.334;6.534;2022-10-16T11:34:57;9.18;;;0.90;;
53801;SDS011;39709;53.334;6.534;2022-10-16T11:37:37;9.25;;;0.93;;
53801;SDS011;39709;53.334;6.534;2022-10-16T11:40:15;5.40;;;0.70;;
53801;SDS011;39709;53.334;6.534;2022-10-16T11:42:54;8.27;;;0.80;;
53801;SDS011;39709;53.334;6.534;2022-10-16T11:45:30;4.57;;;0.50;;
53801;SDS011;39709;53.334;6.534;2022-10-16T11:50:50;7.47;;;1.33;;
53801;SDS011;39709;53.334;6.534;2022-10-16T11:53:34;5.37;;;0.70;;
53801;SDS011;39709;53.334;6.534;2022-10-16T11:56:11;6.72;;;0.77;;
53801;SDS011;39709;53.334;6.534;2022-10-16T11:58:46;9.25;;;0.85;;
53801;SDS011;39709;53.334;6.534;2022-10-16T12:01:43;8.25;;;0.75;;
53801;SDS011;39709;53.334;6.534;2022-10-16T12:06:47;9.17;;;0.90;;
53801;SDS011;39709;53.334;6.534;2022-10-16T12:09:32;5.38;;;0.80;;
53801;SDS011;39709;53.334;6.534;2022-10-16T12:12:02;8.37;;;0.80;;
53801;SDS011;39709;53.334;6.534;2022-10-16T12:20:12;6.63;;;0.50;;
53801;SDS011;39709;53.334;6.534;2022-10-16T12:22:52;6.55;;;0.60;;
53801;SDS011;39709;53.334;6.534;2022-10-16T12:25:27;8.23;;;0.87;;
53801;SDS011;39709;53.334;6.534;2022-10-16T12:30:39;6.40;;;0.60;;
53801;SDS011;39709;53.334;6.534;2022-10-16T12:33:21;7.40;;;0.60;;
53801;SDS011;39709;53.334;6.534;2022-10-16T12:35:52;5.70;;;0.70;;
53801;SDS011;39709;53.334;6.534;2022-10-16T12:38:19;3.33;;;0.60;;
53801;SDS011;39709;53.334;6.534;2022-10-16T12:40:47;6.82;;;1.05;;
53801;SDS011;39709;53.334;6.534;2022-10-16T12:43:34;5.53;;;0.68;;
53801;SDS011;39709;53.334;6.534;2022-10-16T12:48:34;6.07;;;0.60;;
53801;SDS011;39709;53.334;6.534;2022-10-16T12:53:57;4.57;;;0.50;;
53801;SDS011;39709;53.334;6.534;2022-10-16T13:04:37;5.78;;;0.70;;
53801;SDS011;39709;53.334;6.534;2022-10-16T13:07:26;7.43;;;0.95;;
53801;SDS011;39709;53.334;6.534;2022-10-16T13:10:11;6.97;;;0.60;;
53801;SDS011;39709;53.334;6.534;2022-10-16T13:29:32;3.55;;;0.60;;
53801;SDS011;39709;53.334;6.534;2022-10-16T13:31:59;5.60;;;1.42;;
53801;SDS011;39709;53.334;6.534;2022-10-16T13:34:32;5.50;;;0.60;;
53801;SDS011;39709;53.334;6.534;2022-10-16T13:36:57;5.87;;;0.60;;
53801;SDS011;39709;53.334;6.534;2022-10-16T13:39:27;6.97;;;0.60;;
53801;SDS011;39709;53.334;6.534;2022-10-16T13:42:14;6.22;;;0.60;;
53801;SDS011;39709;53.334;6.534;2022-10-16T13:44:51;7.17;;;0.70;;
53801;SDS011;39709;53.334;6.534;2022-10-16T13:47:19;4.85;;;0.52;;
53801;SDS011;39709;53.334;6.534;2022-10-16T13:50:05;6.20;;;0.63;;
53801;SDS011;39709;53.334;6.534;2022-10-16T13:52:36;10.57;;;0.60;;
53801;SDS011;39709;53.334;6.534;2022-10-16T13:55:03;5.78;;;0.80;;
53801;SDS011;39709;53.334;6.534;2022-10-16T13:57:39;6.10;;;0.60;;
53801;SDS011;39709;53.334;6.534;2022-10-16T14:03:21;6.90;;;0.63;;
53801;SDS011;39709;53.334;6.534;2022-10-16T14:05:54;5.68;;;0.70;;
53801;SDS011;39709;53.334;6.534;2022-10-16T14:08:23;5.47;;;0.52;;
53801;SDS011;39709;53.334;6.534;2022-10-16T14:10:57;6.03;;;0.70;;
53801;SDS011;39709;53.334;6.534;2022-10-16T14:15:59;4.22;;;0.63;;
53801;SDS011;39709;53.334;6.534;2022-10-16T14:18:30;4.35;;;0.50;;
53801;SDS011;39709;53.334;6.534;2022-10-16T14:21:01;4.40;;;0.57;;
53801;SDS011;39709;53.334;6.534;2022-10-16T14:23:30;7.60;;;0.80;;
53801;SDS011;39709;53.334;6.534;2022-10-16T14:26:05;5.95;;;0.63;;
53801;SDS011;39709;53.334;6.534;2022-10-16T14:28:34;6.70;;;0.75;;
53801;SDS011;39709;53.334;6.534;2022-10-16T14:31:01;6.75;;;0.88;;
53801;SDS011;39709;53.334;6.534;2022-10-16T14:36:04;5.22;;;0.80;;
53801;SDS011;39709;53.334;6.534;2022-10-16T14:38:38;5.43;;;0.60;;
53801;SDS011;39709;53.334;6.534;2022-10-16T14:41:06;3.47;;;0.70;;
53801;SDS011;39709;53.334;6.534;2022-10-16T14:43:32;7.40;;;0.50;;
53801;SDS011;39709;53.334;6.534;2022-10-16T14:46:01;4.15;;;0.40;;
53801;SDS011;39709;53.334;6.534;2022-10-16T14:48:29;5.78;;;0.80;;
53801;SDS011;39709;53.334;6.534;2022-10-16T14:50:55;4.05;;;0.57;;
53801;SDS011;39709;53.334;6.534;2022-10-16T14:53:21;7.17;;;0.50;;
53801;SDS011;39709;53.334;6.534;2022-10-16T14:55:46;6.15;;;0.50;;
53801;SDS011;39709;53.334;6.534;2022-10-16T14:58:17;4.13;;;0.60;;
53801;SDS011;39709;53.334;6.534;2022-10-16T15:00:45;6.40;;;0.60;;
53801;SDS011;39709;53.334;6.534;2022-10-16T15:03:12;5.23;;;0.80;;
53801;SDS011;39709;53.334;6.534;2022-10-16T15:05:37;4.38;;;0.70;;
53801;SDS011;39709;53.334;6.534;2022-10-16T15:08:03;6.13;;;0.57;;
53801;SDS011;39709;53.334;6.534;2022-10-16T15:10:29;6.20;;;0.82;;
53801;SDS011;39709;53.334;6.534;2022-10-16T15:12:58;8.57;;;0.80;;
53801;SDS011;39709;53.334;6.534;2022-10-16T15:17:58;7.10;;;1.00;;
53801;SDS011;39709;53.334;6.534;2022-10-16T15:20:26;7.53;;;0.80;;
53801;SDS011;39709;53.334;6.534;2022-10-16T15:22:53;7.18;;;0.93;;
53801;SDS011;39709;53.334;6.534;2022-10-16T15:25:25;8.87;;;1.33;;
53801;SDS011;39709;53.334;6.534;2022-10-16T15:27:56;5.27;;;0.70;;
53801;SDS011;39709;53.334;6.534;2022-10-16T15:30:23;6.00;;;0.80;;
53801;SDS011;39709;53.334;6.534;2022-10-16T15:32:49;9.50;;;0.68;;
53801;SDS011;39709;53.334;6.534;2022-10-16T15:35:14;6.27;;;1.00;;
53801;SDS011;39709;53.334;6.534;2022-10-16T15:37:40;7.70;;;0.85;;
53801;SDS011;39709;53.334;6.534;2022-10-16T15:40:06;5.73;;;0.80;;
53801;SDS011;39709;53.334;6.534;2022-10-16T15:42:33;6.22;;;0.80;;
53801;SDS011;39709;53.334;6.534;2022-10-16T15:44:59;5.13;;;0.80;;
53801;SDS011;39709;53.334;6.534;2022-10-16T15:47:24;6.73;;;0.80;;
53801;SDS011;39709;53.334;6.534;2022-10-16T15:49:50;8.18;;;1.02;;
53801;SDS011;39709;53.334;6.534;2022-10-16T15:52:16;6.73;;;0.60;;
53801;SDS011;39709;53.334;6.534;2022-10-16T15:54:42;7.27;;;0.60;;
53801;SDS011;39709;53.334;6.534;2022-10-16T15:57:08;7.20;;;0.90;;
53801;SDS011;39709;53.334;6.534;2022-10-16T15:59:33;6.78;;;0.82;;
53801;SDS011;39709;53.334;6.534;2022-10-16T16:01:59;6.30;;;1.13;;
53801;SDS011;39709;53.334;6.534;2022-10-16T16:04:25;7.45;;;0.93;;
53801;SDS011;39709;53.334;6.534;2022-10-16T16:06:50;7.90;;;0.80;;
53801;SDS011;39709;53.334;6.534;2022-10-16T16:09:16;5.35;;;0.80;;
53801;SDS011;39709;53.334;6.534;2022-10-16T16:11:42;6.80;;;0.70;;
53801;SDS011;39709;53.334;6.534;2022-10-16T16:14:12;9.20;;;0.85;;
53801;SDS011;39709;53.334;6.534;2022-10-16T16:16:38;5.87;;;1.10;;
53801;SDS011;39709;53.334;6.534;2022-10-16T16:19:04;7.80;;;0.60;;
53801;SDS011;39709;53.334;6.534;2022-10-16T16:21:31;7.80;;;0.88;;
53801;SDS011;39709;53.334;6.534;2022-10-16T16:23:57;5.67;;;0.63;;
53801;SDS011;39709;53.334;6.534;2022-10-16T16:28:57;7.03;;;1.15;;
53801;SDS011;39709;53.334;6.534;2022-10-16T16:31:26;9.90;;;1.30;;
53801;SDS011;39709;53.334;6.534;2022-10-16T16:33:53;9.30;;;1.25;;
53801;SDS011;39709;53.334;6.534;2022-10-16T16:36:19;8.35;;;1.00;;
53801;SDS011;39709;53.334;6.534;2022-10-16T16:38:45;7.60;;;0.90;;
53801;SDS011;39709;53.334;6.534;2022-10-16T16:43:42;7.55;;;1.00;;
53801;SDS011;39709;53.334;6.534;2022-10-16T16:46:08;6.72;;;1.05;;
53801;SDS011;39709;53.334;6.534;2022-10-16T16:48:34;6.57;;;0.90;;
53801;SDS011;39709;53.334;6.534;2022-10-16T16:51:06;5.95;;;0.85;;
53801;SDS011;39709;53.334;6.534;2022-10-16T16:53:36;9.68;;;1.23;;
53801;SDS011;39709;53.334;6.534;2022-10-16T16:56:05;6.93;;;1.13;;
53801;SDS011;39709;53.334;6.534;2022-10-16T16:58:31;9.48;;;1.10;;
53801;SDS011;39709;53.334;6.534;2022-10-16T17:00:57;10.23;;;1.25;;
53801;SDS011;39709;53.334;6.534;2022-10-16T17:03:27;8.95;;;1.10;;
53801;SDS011;39709;53.334;6.534;2022-10-16T17:05:57;7.95;;;1.30;;